createdAt,value
2022-09-04T00:01:45.038Z,98242.33
2022-09-04T00:04:26.181Z,98248.48
2022-09-04T00:07:09.494Z,98248.48
2022-09-04T00:09:52.927Z,98252.73
2022-09-04T00:12:31.320Z,98252.13
2022-09-04T00:15:12.232Z,98252.09
2022-09-04T00:17:52.560Z,98253.77
2022-09-04T00:20:35.856Z,98257.20
2022-09-04T00:23:14.784Z,98255.06
2022-09-04T00:25:57.403Z,98254.08
2022-09-04T00:28:36.379Z,98248.98
2022-09-04T00:31:19.760Z,98250.80
2022-09-04T00:34:07.408Z,98247.38
2022-09-04T00:36:48.169Z,98250.26
2022-09-04T00:39:38.100Z,98249.73
2022-09-04T00:42:26.782Z,98251.30
2022-09-04T00:45:14.659Z,98256.22
2022-09-04T00:48:11.143Z,98255.70
2022-09-04T00:51:08.186Z,98259.52
2022-09-04T00:53:52.596Z,98255.55
2022-09-04T00:56:52.671Z,98256.38
2022-09-04T00:59:39.839Z,98257.49
2022-09-04T01:02:19.235Z,98258.28
2022-09-04T01:05:08.281Z,98263.23
2022-09-04T01:07:56.759Z,98263.29
2022-09-04T01:10:36.526Z,98261.34
2022-09-04T01:13:13.910Z,98261.41
2022-09-04T01:15:52.763Z,98263.63
2022-09-04T01:18:32.718Z,98266.79
2022-09-04T01:21:23.593Z,98267.86
2022-09-04T01:24:21.669Z,98271.04
2022-09-04T01:27:00.948Z,98271.74
2022-09-04T01:29:42.684Z,98275.48
2022-09-04T01:32:25.569Z,98277.60
2022-09-04T01:35:09.949Z,98280.30
2022-09-04T01:37:52.755Z,98279.79
2022-09-04T01:40:36.111Z,98277.26
2022-09-04T01:43:12.497Z,98281.30
2022-09-04T01:46:06.357Z,98286.23
2022-09-04T01:48:47.274Z,98282.83
2022-09-04T01:51:26.238Z,98284.25
2022-09-04T01:54:18.906Z,98289.08
2022-09-04T01:57:08.445Z,98285.95
2022-09-04T01:59:53.091Z,98288.16
2022-09-04T02:02:34.136Z,98288.69
2022-09-04T02:05:15.805Z,98285.01
2022-09-04T02:07:51.653Z,98282.15
2022-09-04T02:10:36.694Z,98279.54
2022-09-04T02:13:22.433Z,98275.65
2022-09-04T02:16:04.378Z,98277.08
2022-09-04T02:18:45.496Z,98276.55
2022-09-04T02:21:27.140Z,98275.45
2022-09-04T02:24:05.879Z,98272.77
2022-09-04T02:26:43.824Z,98274.17
2022-09-04T02:29:23.115Z,98280.46
2022-09-04T02:32:01.248Z,98281.79
2022-09-04T02:34:41.878Z,98284.06
2022-09-04T02:37:24.214Z,98283.65
2022-09-04T02:40:04.237Z,98280.95
2022-09-04T02:42:50.435Z,98278.54
2022-09-04T02:45:34.701Z,98280.83
2022-09-04T02:48:14.360Z,98280.61
2022-09-04T02:51:00.692Z,98284.95
2022-09-04T02:53:39.842Z,98281.69
2022-09-04T02:56:24.020Z,98278.23
2022-09-04T02:59:11.583Z,98274.29
2022-09-04T03:01:51.865Z,98276.36
2022-09-04T03:04:31.744Z,98270.84
2022-09-04T03:07:10.837Z,98273.35
2022-09-04T03:09:48.512Z,98270.73
2022-09-04T03:12:33.142Z,98271.75
2022-09-04T03:15:15.305Z,98269.33
2022-09-04T03:17:55.358Z,98271.01
2022-09-04T03:20:29.655Z,98272.84
2022-09-04T03:23:09.009Z,98273.20
2022-09-04T03:25:55.330Z,98273.29
2022-09-04T03:28:36.979Z,98271.23
2022-09-04T03:31:14.547Z,98267.20
2022-09-04T03:33:53.795Z,98268.06
2022-09-04T03:36:37.147Z,98270.33
2022-09-04T03:39:17.621Z,98270.31
2022-09-04T03:41:58.921Z,98266.63
2022-09-04T03:44:44.811Z,98271.56
2022-09-04T03:47:25.437Z,98275.09
2022-09-04T03:50:06.365Z,98276.55
2022-09-04T03:52:50.532Z,98281.11
2022-09-04T03:55:56.556Z,98285.98
2022-09-04T03:58:38.176Z,98288.48
2022-09-04T04:01:13.546Z,98290.36
2022-09-04T04:04:00.154Z,98287.79
2022-09-04T04:06:39.109Z,98291.03
2022-09-04T04:09:31.555Z,98291.42
2022-09-04T04:12:27.500Z,98294.00
2022-09-04T04:15:13.576Z,98300.13
2022-09-04T04:18:04.390Z,98304.84
2022-09-04T04:20:45.606Z,98306.92
2022-09-04T04:23:50.173Z,98304.70
2022-09-04T04:26:30.740Z,98305.44
2022-09-04T04:29:21.342Z,98305.20
2022-09-04T04:32:13.754Z,98311.41
2022-09-04T04:35:03.444Z,98314.30
2022-09-04T04:37:44.511Z,98315.80
2022-09-04T04:40:25.746Z,98312.55
2022-09-04T04:43:06.408Z,98318.09
2022-09-04T04:45:54.829Z,98323.59
2022-09-04T04:48:56.965Z,98325.48
2022-09-04T04:51:51.056Z,98326.86
2022-09-04T04:54:39.155Z,98331.85
2022-09-04T04:57:21.892Z,98330.88
2022-09-04T05:00:06.511Z,98332.85
2022-09-04T05:02:49.277Z,98332.65
2022-09-04T05:05:29.634Z,98336.33
2022-09-04T05:08:08.656Z,98342.84
2022-09-04T05:10:46.435Z,98344.19
2022-09-04T05:13:25.242Z,98348.20
2022-09-04T05:16:09.513Z,98347.67
2022-09-04T05:18:52.048Z,98345.74
2022-09-04T05:21:30.098Z,98350.11
2022-09-04T05:24:08.406Z,98349.13
2022-09-04T05:26:50.378Z,98348.32
2022-09-04T05:29:32.652Z,98353.02
2022-09-04T05:32:19.045Z,98353.69
2022-09-04T05:35:05.340Z,98352.83
2022-09-04T05:37:43.997Z,98353.14
2022-09-04T05:40:29.514Z,98355.65
2022-09-04T05:43:17.920Z,98359.33
2022-09-04T05:46:05.948Z,98355.55
2022-09-04T05:48:47.546Z,98355.14
2022-09-04T05:51:55.138Z,98355.27
2022-09-04T05:54:58.626Z,98361.64
2022-09-04T05:57:42.777Z,98367.67
2022-09-04T06:00:17.448Z,98372.91
2022-09-04T06:03:33.366Z,98373.41
2022-09-04T06:06:18.068Z,98371.49
2022-09-04T06:09:20.015Z,98376.52
2022-09-04T06:12:08.548Z,98382.71
2022-09-04T06:15:02.733Z,98383.80
2022-09-04T06:17:50.764Z,98386.74
2022-09-04T06:20:43.034Z,98388.91
2022-09-04T06:23:30.919Z,98386.08
2022-09-04T06:26:27.678Z,98384.40
2022-09-04T06:29:16.005Z,98382.84
2022-09-04T06:32:04.470Z,98383.80
2022-09-04T06:34:58.973Z,98387.71
2022-09-04T06:37:38.471Z,98390.44
2022-09-04T06:40:38.983Z,98391.21
2022-09-04T06:43:22.108Z,98394.38
2022-09-04T06:46:07.216Z,98389.55
2022-09-04T06:48:53.126Z,98388.09
2022-09-04T06:51:39.655Z,98390.02
2022-09-04T06:54:27.881Z,98389.39
2022-09-04T06:57:19.081Z,98390.80
2022-09-04T07:00:06.020Z,98395.19
2022-09-04T07:03:13.701Z,98389.95
2022-09-04T07:05:55.303Z,98397.39
2022-09-04T07:08:44.110Z,98397.52
2022-09-04T07:11:30.554Z,98398.83
2022-09-04T07:14:31.563Z,98400.20
2022-09-04T07:17:12.305Z,98399.65
2022-09-04T07:20:04.484Z,98403.38
2022-09-04T07:23:16.952Z,98410.91
2022-09-04T07:26:00.665Z,98412.91
2022-09-04T07:29:03.140Z,98427.10
2022-09-04T07:31:43.019Z,98425.82
2022-09-04T07:34:24.982Z,98425.88
2022-09-04T07:37:01.538Z,98421.48
2022-09-04T07:39:39.657Z,98422.79
2022-09-04T07:42:17.078Z,98427.59
2022-09-04T07:45:00.698Z,98435.98
2022-09-04T07:47:38.602Z,98436.52
2022-09-04T07:50:16.659Z,98441.64
2022-09-04T07:53:08.300Z,98444.83
2022-09-04T07:55:46.821Z,98444.30
2022-09-04T07:58:45.663Z,98449.65
2022-09-04T08:01:37.058Z,98448.81
2022-09-04T08:04:51.121Z,98451.78
2022-09-04T08:07:47.941Z,98447.29
2022-09-04T08:10:31.588Z,98447.56
2022-09-04T08:13:43.999Z,98442.03
2022-09-04T08:16:23.987Z,98447.55
2022-09-04T08:19:15.674Z,98458.97
2022-09-04T08:21:50.948Z,98470.76
2022-09-04T08:24:50.151Z,98475.09
2022-09-04T08:27:40.493Z,98476.77
2022-09-04T08:30:20.185Z,98473.98
2022-09-04T08:33:18.738Z,98474.27
2022-09-04T08:35:57.333Z,98480.30
2022-09-04T08:38:46.123Z,98479.49
2022-09-04T08:41:47.159Z,98479.55
2022-09-04T08:44:53.563Z,98489.77
2022-09-04T08:48:02.255Z,98493.77
2022-09-04T08:50:57.978Z,98496.02
2022-09-04T08:53:55.160Z,98502.05
2022-09-04T08:56:36.304Z,98504.17
2022-09-04T08:59:37.832Z,98500.71
2022-09-04T09:02:42.511Z,98499.73
2022-09-04T09:05:33.464Z,98501.55
2022-09-04T09:08:38.836Z,98504.39
2022-09-04T09:11:43.348Z,98503.13
2022-09-04T09:14:48.415Z,98500.80
2022-09-04T09:17:41.839Z,98505.83
2022-09-04T09:20:28.841Z,98500.89
2022-09-04T09:23:36.179Z,98507.96
2022-09-04T09:26:31.106Z,98508.06
2022-09-04T09:29:30.523Z,98509.14
2022-09-04T09:32:37.069Z,98513.48
2022-09-04T09:35:56.010Z,98513.88
2022-09-04T09:38:58.865Z,98513.45
2022-09-04T09:41:59.541Z,98516.20
2022-09-04T09:45:00.324Z,98512.91
2022-09-04T09:48:05.425Z,98508.64
2022-09-04T09:51:03.274Z,98508.88
2022-09-04T09:54:25.496Z,98504.53
2022-09-04T09:57:33.535Z,98501.08
2022-09-04T10:00:11.960Z,98503.41
2022-09-04T10:03:12.113Z,98503.70
2022-09-04T10:06:30.181Z,98508.73
2022-09-04T10:09:34.611Z,98510.55
2022-09-04T10:12:33.739Z,98512.59
2022-09-04T10:15:48.882Z,98517.50
2022-09-04T10:19:06.241Z,98511.80
2022-09-04T10:22:11.766Z,98517.63
2022-09-04T10:25:13.890Z,98519.04
2022-09-04T10:28:12.488Z,98520.95
2022-09-04T10:31:11.203Z,98518.84
2022-09-04T10:34:00.890Z,98522.29
2022-09-04T10:36:45.451Z,98525.20
2022-09-04T10:39:45.718Z,98529.61
2022-09-04T10:42:34.439Z,98533.02
2022-09-04T10:45:22.179Z,98528.06
2022-09-04T10:48:28.451Z,98530.00
2022-09-04T10:51:15.702Z,98527.13
2022-09-04T10:54:02.257Z,98526.41
2022-09-04T10:56:51.265Z,98528.30
2022-09-04T11:00:00.777Z,98526.58
2022-09-04T11:03:08.047Z,98527.80
2022-09-04T11:06:18.834Z,98529.30
2022-09-04T11:09:16.141Z,98527.58
2022-09-04T11:12:09.386Z,98531.64
2022-09-04T11:14:59.653Z,98529.45
2022-09-04T11:17:53.960Z,98530.09
2022-09-04T11:21:09.297Z,98529.54
2022-09-04T11:24:26.492Z,98530.61
2022-09-04T11:27:47.753Z,98532.39
2022-09-04T11:30:23.713Z,98526.80
2022-09-04T11:33:33.189Z,98528.94
2022-09-04T11:36:50.169Z,98527.70
2022-09-04T11:39:47.066Z,98528.64
2022-09-04T11:42:32.970Z,98529.21
2022-09-04T11:45:41.399Z,98526.42
2022-09-04T11:48:30.243Z,98531.42
2022-09-04T11:51:20.086Z,98523.71
2022-09-04T11:54:20.556Z,98525.63
2022-09-04T11:57:08.159Z,98521.97
2022-09-04T12:00:07.042Z,98520.48
2022-09-04T12:03:10.399Z,98523.75
2022-09-04T12:05:55.934Z,98523.80
2022-09-04T12:09:00.866Z,98524.83
2022-09-04T12:12:03.274Z,98525.20
2022-09-04T12:14:49.637Z,98521.98
2022-09-04T12:18:14.347Z,98522.17
2022-09-04T12:21:23.312Z,98521.27
2022-09-04T12:24:36.721Z,98518.92
2022-09-04T12:27:35.023Z,98515.73
2022-09-04T12:30:20.161Z,98513.35
2022-09-04T12:33:24.563Z,98513.00
2022-09-04T12:36:23.247Z,98509.80
2022-09-04T12:39:25.645Z,98510.68
2022-09-04T12:42:06.288Z,98511.60
2022-09-04T12:44:51.376Z,98514.08
2022-09-04T12:47:37.085Z,98513.58
2022-09-04T12:50:28.354Z,98511.52
2022-09-04T12:53:25.895Z,98512.72
2022-09-04T12:56:06.059Z,98511.58
2022-09-04T12:58:56.610Z,98512.48
2022-09-04T13:01:39.568Z,98510.97
2022-09-04T13:04:21.940Z,98509.81
2022-09-04T13:07:16.006Z,98507.38
2022-09-04T13:09:56.033Z,98505.98
2022-09-04T13:12:38.599Z,98510.19
2022-09-04T13:15:24.457Z,98505.98
2022-09-04T13:18:08.292Z,98509.89
2022-09-04T13:20:51.919Z,98511.05
2022-09-04T13:23:37.437Z,98509.08
2022-09-04T13:26:25.205Z,98504.55
2022-09-04T13:29:16.919Z,98507.18
2022-09-04T13:32:07.483Z,98509.34
2022-09-04T13:34:58.621Z,98512.54
2022-09-04T13:37:30.486Z,98506.67
2022-09-04T13:40:18.104Z,98505.96
2022-09-04T13:43:18.755Z,98508.45
2022-09-04T13:45:55.523Z,98512.52
2022-09-04T13:48:38.372Z,98514.41
2022-09-04T13:51:14.867Z,98522.70
2022-09-04T13:53:59.602Z,98522.20
2022-09-04T13:56:36.509Z,98526.58
2022-09-04T13:59:11.936Z,98530.05
2022-09-04T14:01:47.969Z,98530.84
2022-09-04T14:04:26.313Z,98533.16
2022-09-04T14:07:07.089Z,98533.73
2022-09-04T14:09:44.734Z,98527.48
2022-09-04T14:12:33.005Z,98526.27
2022-09-04T14:15:32.839Z,98526.40
2022-09-04T14:18:17.767Z,98528.05
2022-09-04T14:21:01.278Z,98530.52
2022-09-04T14:23:47.219Z,98533.27
2022-09-04T14:26:29.000Z,98530.80
2022-09-04T14:29:08.572Z,98531.86
2022-09-04T14:31:49.367Z,98535.21
2022-09-04T14:34:36.195Z,98537.96
2022-09-04T14:37:19.817Z,98543.00
2022-09-04T14:39:58.794Z,98543.92
2022-09-04T14:42:47.711Z,98537.41
2022-09-04T14:45:35.364Z,98536.84
2022-09-04T14:48:11.409Z,98542.13
2022-09-04T14:50:49.574Z,98539.04
2022-09-04T14:53:27.313Z,98546.11
2022-09-04T14:56:32.270Z,98547.19
2022-09-04T14:59:14.839Z,98552.73
2022-09-04T15:02:19.073Z,98555.88
2022-09-04T15:04:56.461Z,98560.54
2022-09-04T15:08:03.808Z,98560.89
2022-09-04T15:10:49.906Z,98565.77
2022-09-04T15:13:54.246Z,98564.45
2022-09-04T15:16:44.261Z,98570.38
2022-09-04T15:19:31.937Z,98573.17
2022-09-04T15:22:10.831Z,98571.88
2022-09-04T15:24:58.448Z,98569.85
2022-09-04T15:27:40.743Z,98567.42
2022-09-04T15:30:21.832Z,98570.98
2022-09-04T15:33:06.489Z,98567.02
2022-09-04T15:35:39.589Z,98566.58
2022-09-04T15:38:20.639Z,98568.06
2022-09-04T15:41:17.738Z,98565.20
2022-09-04T15:43:55.575Z,98561.23
2022-09-04T15:46:44.269Z,98561.39
2022-09-04T15:49:32.427Z,98563.23
2022-09-04T15:52:20.010Z,98561.34
2022-09-04T15:55:11.695Z,98560.20
2022-09-04T15:57:58.515Z,98560.27
2022-09-04T16:00:34.073Z,98559.39
2022-09-04T16:03:16.610Z,98563.63
2022-09-04T16:05:53.989Z,98563.34
2022-09-04T16:08:33.437Z,98563.09
2022-09-04T16:11:11.724Z,98566.70
2022-09-04T16:13:58.077Z,98563.83
2022-09-04T16:16:35.656Z,98562.36
2022-09-04T16:19:15.953Z,98568.69
2022-09-04T16:21:55.564Z,98571.38
2022-09-04T16:24:35.604Z,98573.55
2022-09-04T16:27:12.254Z,98576.33
2022-09-04T16:29:51.116Z,98579.83
2022-09-04T16:32:25.761Z,98581.09
2022-09-04T16:35:03.189Z,98584.34
2022-09-04T16:37:42.460Z,98583.61
2022-09-04T16:40:28.369Z,98586.67
2022-09-04T16:43:09.632Z,98588.59
2022-09-04T16:45:49.589Z,98591.41
2022-09-04T16:48:34.606Z,98592.23
2022-09-04T16:51:39.238Z,98592.96
2022-09-04T16:54:16.288Z,98593.30
2022-09-04T16:56:50.772Z,98590.94
2022-09-04T16:59:30.783Z,98593.25
2022-09-04T17:02:06.546Z,98597.12
2022-09-04T17:04:42.662Z,98596.16
2022-09-04T17:07:20.209Z,98600.32
2022-09-04T17:10:01.693Z,98598.30
2022-09-04T17:12:47.363Z,98601.77
2022-09-04T17:15:32.746Z,98604.27
2022-09-04T17:18:09.600Z,98604.15
2022-09-04T17:21:34.869Z,98602.46
2022-09-04T17:28:58.184Z,98606.14
2022-09-04T17:29:10.109Z,98604.48
2022-09-04T17:29:44.577Z,98608.27
2022-09-04T17:33:39.578Z,98612.77
2022-09-04T17:40:42.889Z,98611.59
2022-09-04T17:40:56.843Z,98614.75
2022-09-04T17:41:36.462Z,98616.04
2022-09-04T17:44:31.808Z,98619.86
2022-09-04T17:47:19.282Z,98621.15
2022-09-04T17:49:57.249Z,98630.42
2022-09-04T17:52:32.176Z,98630.45
2022-09-04T17:55:11.915Z,98636.27
2022-09-04T17:58:00.420Z,98641.20
2022-09-04T18:00:35.484Z,98640.81
2022-09-04T18:03:29.772Z,98647.20
2022-09-04T18:06:10.456Z,98648.19
2022-09-04T18:08:55.650Z,98654.20
2022-09-04T18:11:34.421Z,98659.59
2022-09-04T18:14:13.570Z,98665.73
2022-09-04T18:17:12.787Z,98669.38
2022-09-04T18:19:47.699Z,98673.05
2022-09-04T18:22:31.852Z,98679.18
2022-09-04T18:25:17.221Z,98682.30
2022-09-04T18:28:11.666Z,98689.70
2022-09-04T18:37:05.870Z,98695.30
2022-09-04T18:37:16.433Z,98699.67
2022-09-04T18:37:24.419Z,98701.59
2022-09-04T18:40:07.139Z,98702.68
2022-09-04T18:50:17.468Z,98707.02
2022-09-04T18:50:30.864Z,98708.85
2022-09-04T18:50:32.525Z,98706.85
2022-09-04T18:51:51.112Z,98707.68
2022-09-04T18:54:28.292Z,98710.13
2022-09-04T18:57:13.758Z,98708.98
2022-09-04T18:59:55.743Z,98713.63
2022-09-04T19:02:52.858Z,98712.08
2022-09-04T19:05:44.821Z,98711.13
2022-09-04T19:08:19.919Z,98710.08
2022-09-04T19:10:56.506Z,98709.48
2022-09-04T19:13:34.731Z,98711.83
2022-09-04T19:16:12.347Z,98712.79
2022-09-04T19:18:52.470Z,98714.52
2022-09-04T19:21:32.357Z,98715.13
2022-09-04T19:24:28.679Z,98713.92
2022-09-04T19:27:26.502Z,98717.70
2022-09-04T19:30:18.014Z,98720.12
2022-09-04T19:33:00.054Z,98719.75
2022-09-04T19:35:38.721Z,98719.30
2022-09-04T19:42:02.957Z,98719.45
2022-09-04T19:46:03.654Z,98727.69
2022-09-04T19:46:16.323Z,98731.55
2022-09-04T19:47:29.614Z,98734.50
2022-09-04T19:53:19.942Z,98735.77
2022-09-04T19:53:37.928Z,98735.86
2022-09-04T19:56:21.928Z,98734.52
2022-09-04T19:59:11.267Z,98736.89
2022-09-04T20:01:47.766Z,98736.02
2022-09-04T20:04:38.587Z,98737.63
2022-09-04T20:07:31.303Z,98739.64
2022-09-04T20:10:16.637Z,98741.17
2022-09-04T20:12:51.379Z,98741.48
2022-09-04T20:15:31.441Z,98740.35
2022-09-04T20:18:12.507Z,98740.70
2022-09-04T20:20:54.850Z,98744.60
2022-09-04T20:23:39.052Z,98742.16
2022-09-04T20:26:21.289Z,98740.52
2022-09-04T20:29:09.504Z,98741.59
2022-09-04T20:31:57.617Z,98741.69
2022-09-04T20:34:41.126Z,98741.18
2022-09-04T20:37:32.455Z,98742.34
2022-09-04T20:40:11.353Z,98739.45
2022-09-04T20:42:56.500Z,98746.54
2022-09-04T20:50:00.615Z,98748.71
2022-09-04T20:52:52.983Z,98750.56
2022-09-04T20:52:59.186Z,98754.45
2022-09-04T20:54:45.497Z,98759.30
2022-09-04T20:59:35.936Z,98757.80
2022-09-04T21:03:11.087Z,98760.73
2022-09-04T21:03:35.183Z,98761.96
2022-09-04T21:06:26.626Z,98758.80
2022-09-04T21:09:07.618Z,98759.73
2022-09-04T21:11:43.656Z,98764.64
2022-09-04T21:14:21.753Z,98763.11
2022-09-04T21:17:35.171Z,98765.25
2022-09-04T21:20:27.094Z,98766.52
2022-09-04T21:23:05.576Z,98767.92
2022-09-04T21:25:50.281Z,98768.84
2022-09-04T21:28:34.554Z,98773.16
2022-09-04T21:31:21.022Z,98774.61
2022-09-04T21:34:13.668Z,98775.50
2022-09-04T21:36:54.839Z,98776.77
2022-09-04T21:39:58.573Z,98778.42
2022-09-04T21:43:05.659Z,98778.19
2022-09-04T21:45:53.353Z,98775.46
2022-09-04T21:48:40.919Z,98775.66
2022-09-04T21:51:30.658Z,98778.95
2022-09-04T21:55:42.532Z,98778.92
2022-09-04T22:02:29.348Z,98776.87
2022-09-04T22:02:37.438Z,98777.98
2022-09-04T22:03:44.674Z,98784.98
2022-09-04T22:06:49.452Z,98781.33
2022-09-04T22:13:29.561Z,98782.09
2022-09-04T22:13:39.417Z,98778.80
2022-09-04T22:15:46.871Z,98787.10
2022-09-04T22:18:41.554Z,98788.08
2022-09-04T22:21:36.845Z,98793.88
2022-09-04T22:24:27.675Z,98796.41
2022-09-04T22:27:29.461Z,98796.36
2022-09-04T22:30:15.180Z,98795.63
2022-09-04T22:32:54.737Z,98793.58
2022-09-04T22:36:13.306Z,98795.70
2022-09-04T22:39:14.728Z,98799.49
2022-09-04T22:42:06.931Z,98800.42
2022-09-04T22:45:09.671Z,98798.03
2022-09-04T22:47:49.299Z,98797.59
2022-09-04T22:50:50.860Z,98801.09
2022-09-04T22:53:40.331Z,98804.02
2022-09-04T22:56:24.107Z,98807.79
2022-09-04T22:59:26.930Z,98811.73
2022-09-04T23:03:04.227Z,98812.02
2022-09-04T23:06:08.810Z,98814.86
2022-09-04T23:13:48.668Z,98816.92
2022-09-04T23:13:56.569Z,98809.33
2022-09-04T23:15:37.343Z,98807.64
2022-09-04T23:19:19.111Z,98808.72
2022-09-04T23:26:33.101Z,98809.12
2022-09-04T23:26:53.586Z,98809.13
2022-09-04T23:28:15.482Z,98806.21
2022-09-04T23:31:13.294Z,98808.53
2022-09-04T23:34:39.114Z,98810.92
2022-09-04T23:37:47.599Z,98813.91
2022-09-04T23:40:51.338Z,98814.62
2022-09-04T23:44:06.461Z,98817.80
2022-09-04T23:47:20.392Z,98818.13
2022-09-04T23:50:33.555Z,98820.59
2022-09-04T23:53:36.855Z,98816.34
2022-09-04T23:56:32.318Z,98814.84
2022-09-04T23:59:37.605Z,98815.88
